sensor_id;sensor_type;location;lat;lon;timestamp;P1;P2;P0
72854;PMS7003;60991;51.278;22.550;2023-06-04T00:00:54;1.75;1.00;1.00
72854;PMS7003;60991;51.278;22.550;2023-06-04T00:02:24;2.50;1.25;1.00
72854;PMS7003;60991;51.278;22.550;2023-06-04T00:03:55;2.00;2.00;1.50
72854;PMS7003;60991;51.278;22.550;2023-06-04T00:05:25;4.00;3.00;2.75
72854;PMS7003;60991;51.278;22.550;2023-06-04T00:06:55;1.00;1.00;1.00
72854;PMS7003;60991;51.278;22.550;2023-06-04T00:08:25;3.00;1.00;1.00
72854;PMS7003;60991;51.278;22.550;2023-06-04T00:09:56;3.25;1.75;1.25
72854;PMS7003;60991;51.278;22.550;2023-06-04T00:11:26;2.00;2.00;1.00
72854;PMS7003;60991;51.278;22.550;2023-06-04T00:12:56;0.50;0.00;0.00
72854;PMS7003;60991;51.278;22.550;2023-06-04T00:14:26;2.00;2.00;2.00
72854;PMS7003;60991;51.278;22.550;2023-06-04T00:15:57;1.00;1.00;1.00
72854;PMS7003;60991;51.278;22.550;2023-06-04T00:17:27;1.75;1.00;1.00
72854;PMS7003;60991;51.278;22.550;2023-06-04T00:18:57;1.00;1.00;1.00
72854;PMS7003;60991;51.278;22.550;2023-06-04T00:20:27;2.25;1.00;1.00
72854;PMS7003;60991;51.278;22.550;2023-06-04T00:21:57;1.00;1.00;1.00
72854;PMS7003;60991;51.278;22.550;2023-06-04T00:23:28;1.50;1.25;1.00
72854;PMS7003;60991;51.278;22.550;2023-06-04T00:24:58;1.00;1.00;1.00
72854;PMS7003;60991;51.278;22.550;2023-06-04T00:26:28;3.25;2.00;2.00
72854;PMS7003;60991;51.278;22.550;2023-06-04T00:27:58;2.00;2.00;2.00
72854;PMS7003;60991;51.278;22.550;2023-06-04T00:29:29;2.00;1.00;1.00
72854;PMS7003;60991;51.278;22.550;2023-06-04T00:30:59;2.00;1.00;1.00
72854;PMS7003;60991;51.278;22.550;2023-06-04T00:32:29;1.00;1.00;1.00
72854;PMS7003;60991;51.278;22.550;2023-06-04T00:33:59;2.00;2.00;1.25
72854;PMS7003;60991;51.278;22.550;2023-06-04T00:35:31;3.00;1.00;1.00
72854;PMS7003;60991;51.278;22.550;2023-06-04T00:37:01;1.50;1.50;1.00
72854;PMS7003;60991;51.278;22.550;2023-06-04T00:38:32;2.00;2.00;2.00
72854;PMS7003;60991;51.278;22.550;2023-06-04T00:40:02;2.00;1.50;1.00
72854;PMS7003;60991;51.278;22.550;2023-06-04T00:41:32;2.00;2.00;1.25
72854;PMS7003;60991;51.278;22.550;2023-06-04T00:43:02;2.00;1.25;1.25
72854;PMS7003;60991;51.278;22.550;2023-06-04T00:44:33;1.25;1.25;1.00
72854;PMS7003;60991;51.278;22.550;2023-06-04T00:46:03;1.75;1.75;1.75
72854;PMS7003;60991;51.278;22.550;2023-06-04T00:47:33;2.50;1.00;1.00
72854;PMS7003;60991;51.278;22.550;2023-06-04T00:49:04;2.00;2.00;2.00
72854;PMS7003;60991;51.278;22.550;2023-06-04T00:50:35;2.25;2.25;2.00
72854;PMS7003;60991;51.278;22.550;2023-06-04T00:52:07;4.50;3.50;2.75
72854;PMS7003;60991;51.278;22.550;2023-06-04T00:53:39;2.25;2.25;2.00
72854;PMS7003;60991;51.278;22.550;2023-06-04T00:55:09;2.00;2.00;2.00
72854;PMS7003;60991;51.278;22.550;2023-06-04T00:56:40;2.00;2.00;2.00
72854;PMS7003;60991;51.278;22.550;2023-06-04T00:58:10;2.50;2.00;2.00
72854;PMS7003;60991;51.278;22.550;2023-06-04T00:59:40;2.50;2.50;2.00
72854;PMS7003;60991;51.278;22.550;2023-06-04T01:01:19;4.00;2.00;2.00
72854;PMS7003;60991;51.278;22.550;2023-06-04T01:03:04;2.25;1.75;1.75
72854;PMS7003;60991;51.278;22.550;2023-06-04T01:04:44;4.00;2.00;2.00
72854;PMS7003;60991;51.278;22.550;2023-06-04T01:06:28;2.00;1.75;1.50
72854;PMS7003;60991;51.278;22.550;2023-06-04T01:08:05;3.00;3.00;3.00
72854;PMS7003;60991;51.278;22.550;2023-06-04T01:09:36;3.00;2.50;2.00
72854;PMS7003;60991;51.278;22.550;2023-06-04T01:11:07;2.25;1.25;1.25
72854;PMS7003;60991;51.278;22.550;2023-06-04T01:12:41;3.00;3.00;2.00
72854;PMS7003;60991;51.278;22.550;2023-06-04T01:14:12;2.00;2.00;2.00
72854;PMS7003;60991;51.278;22.550;2023-06-04T01:15:42;3.25;2.00;1.25
72854;PMS7003;60991;51.278;22.550;2023-06-04T01:18:58;2.75;2.00;1.00
72854;PMS7003;60991;51.278;22.550;2023-06-04T01:20:40;4.00;2.25;2.25
72854;PMS7003;60991;51.278;22.550;2023-06-04T01:22:17;1.75;1.75;1.75
72854;PMS7003;60991;51.278;22.550;2023-06-04T01:24:03;2.50;1.25;1.25
72854;PMS7003;60991;51.278;22.550;2023-06-04T01:25:39;2.25;2.25;2.00
72854;PMS7003;60991;51.278;22.550;2023-06-04T01:27:11;3.00;2.00;2.00
72854;PMS7003;60991;51.278;22.550;2023-06-04T01:28:41;3.75;3.00;2.00
72854;PMS7003;60991;51.278;22.550;2023-06-04T01:30:12;5.00;4.00;3.25
72854;PMS7003;60991;51.278;22.550;2023-06-04T01:31:43;2.50;2.00;1.75
72854;PMS7003;60991;51.278;22.550;2023-06-04T01:33:16;4.75;4.00;3.00
72854;PMS7003;60991;51.278;22.550;2023-06-04T01:34:48;2.00;2.00;1.75
72854;PMS7003;60991;51.278;22.550;2023-06-04T01:36:18;3.00;2.00;2.00
72854;PMS7003;60991;51.278;22.550;2023-06-04T01:37:49;1.00;1.00;1.00
72854;PMS7003;60991;51.278;22.550;2023-06-04T01:39:19;2.00;2.00;2.00
72854;PMS7003;60991;51.278;22.550;2023-06-04T01:40:49;4.25;2.75;2.75
72854;PMS7003;60991;51.278;22.550;2023-06-04T01:42:20;2.75;2.75;2.00
72854;PMS7003;60991;51.278;22.550;2023-06-04T01:43:50;4.75;3.50;3.00
72854;PMS7003;60991;51.278;22.550;2023-06-04T01:45:21;2.75;2.75;2.00
72854;PMS7003;60991;51.278;22.550;2023-06-04T01:46:52;2.25;2.25;2.00
72854;PMS7003;60991;51.278;22.550;2023-06-04T01:48:22;1.75;1.75;1.50
72854;PMS7003;60991;51.278;22.550;2023-06-04T01:49:52;4.00;3.00;3.00
72854;PMS7003;60991;51.278;22.550;2023-06-04T01:51:23;3.75;3.00;3.00
72854;PMS7003;60991;51.278;22.550;2023-06-04T01:52:53;4.50;4.50;4.00
72854;PMS7003;60991;51.278;22.550;2023-06-04T01:54:23;2.50;2.50;2.25
72854;PMS7003;60991;51.278;22.550;2023-06-04T01:55:54;5.50;3.00;2.75
72854;PMS7003;60991;51.278;22.550;2023-06-04T01:57:24;3.00;3.00;2.00
72854;PMS7003;60991;51.278;22.550;2023-06-04T01:58:54;4.33;3.00;3.00
72854;PMS7003;60991;51.278;22.550;2023-06-04T02:00:24;4.00;2.50;2.50
72854;PMS7003;60991;51.278;22.550;2023-06-04T02:01:54;4.25;2.75;2.75
72854;PMS7003;60991;51.278;22.550;2023-06-04T02:03:25;3.00;3.00;2.75
72854;PMS7003;60991;51.278;22.550;2023-06-04T02:04:55;2.00;2.00;1.75
72854;PMS7003;60991;51.278;22.550;2023-06-04T02:06:26;3.25;3.25;2.75
72854;PMS7003;60991;51.278;22.550;2023-06-04T02:07:56;4.00;4.00;3.00
72854;PMS7003;60991;51.278;22.550;2023-06-04T02:09:26;3.25;3.25;2.75
72854;PMS7003;60991;51.278;22.550;2023-06-04T02:10:56;2.75;2.25;2.00
72854;PMS7003;60991;51.278;22.550;2023-06-04T02:12:26;4.00;3.00;2.75
72854;PMS7003;60991;51.278;22.550;2023-06-04T02:13:57;3.00;2.00;2.00
72854;PMS7003;60991;51.278;22.550;2023-06-04T02:15:27;3.50;3.50;3.00
72854;PMS7003;60991;51.278;22.550;2023-06-04T02:16:58;2.25;2.25;2.00
72854;PMS7003;60991;51.278;22.550;2023-06-04T02:18:28;3.50;3.50;3.00
72854;PMS7003;60991;51.278;22.550;2023-06-04T02:19:58;3.25;3.25;3.00
72854;PMS7003;60991;51.278;22.550;2023-06-04T02:21:29;3.00;3.00;3.00
72854;PMS7003;60991;51.278;22.550;2023-06-04T02:22:59;3.75;3.75;3.00
72854;PMS7003;60991;51.278;22.550;2023-06-04T02:24:29;3.50;3.50;3.00
72854;PMS7003;60991;51.278;22.550;2023-06-04T02:25:59;3.00;3.00;3.00
72854;PMS7003;60991;51.278;22.550;2023-06-04T02:27:30;3.25;3.00;2.25
72854;PMS7003;60991;51.278;22.550;2023-06-04T02:29:00;4.00;2.00;2.00
72854;PMS7003;60991;51.278;22.550;2023-06-04T02:30:30;8.25;3.50;3.50
72854;PMS7003;60991;51.278;22.550;2023-06-04T02:32:01;2.50;2.50;2.50
72854;PMS7003;60991;51.278;22.550;2023-06-04T02:33:32;2.00;2.00;2.00
72854;PMS7003;60991;51.278;22.550;2023-06-04T02:35:02;4.00;3.00;2.75
72854;PMS7003;60991;51.278;22.550;2023-06-04T02:36:33;4.25;4.00;3.00
72854;PMS7003;60991;51.278;22.550;2023-06-04T02:38:04;2.00;2.00;2.00
72854;PMS7003;60991;51.278;22.550;2023-06-04T02:39:34;3.00;3.00;3.00
72854;PMS7003;60991;51.278;22.550;2023-06-04T02:41:05;5.75;4.25;3.75
72854;PMS7003;60991;51.278;22.550;2023-06-04T02:42:35;3.00;3.00;3.00
72854;PMS7003;60991;51.278;22.550;2023-06-04T02:44:06;1.00;1.00;0.75
72854;PMS7003;60991;51.278;22.550;2023-06-04T02:45:36;3.50;2.25;2.25
72854;PMS7003;60991;51.278;22.550;2023-06-04T02:47:06;3.33;3.33;2.67
72854;PMS7003;60991;51.278;22.550;2023-06-04T02:48:37;2.75;2.50;2.25
72854;PMS7003;60991;51.278;22.550;2023-06-04T02:50:07;1.75;1.75;1.75
72854;PMS7003;60991;51.278;22.550;2023-06-04T02:51:37;6.00;3.00;3.00
72854;PMS7003;60991;51.278;22.550;2023-06-04T02:53:08;3.25;3.25;2.25
72854;PMS7003;60991;51.278;22.550;2023-06-04T02:54:38;2.75;2.75;2.00
72854;PMS7003;60991;51.278;22.550;2023-06-04T02:56:08;4.00;4.00;3.00
72854;PMS7003;60991;51.278;22.550;2023-06-04T02:57:42;2.33;2.33;2.00
72854;PMS7003;60991;51.278;22.550;2023-06-04T02:59:12;4.50;3.00;2.00
72854;PMS7003;60991;51.278;22.550;2023-06-04T03:00:42;1.25;1.25;1.00
72854;PMS7003;60991;51.278;22.550;2023-06-04T03:02:13;3.00;3.00;3.00
72854;PMS7003;60991;51.278;22.550;2023-06-04T03:03:43;3.75;3.75;3.00
72854;PMS7003;60991;51.278;22.550;2023-06-04T03:05:13;2.00;2.00;2.00
72854;PMS7003;60991;51.278;22.550;2023-06-04T03:06:45;3.00;2.00;2.00
72854;PMS7003;60991;51.278;22.550;2023-06-04T03:08:15;4.50;3.00;3.00
72854;PMS7003;60991;51.278;22.550;2023-06-04T03:09:46;2.00;2.00;2.00
72854;PMS7003;60991;51.278;22.550;2023-06-04T03:11:17;2.50;2.50;2.00
72854;PMS7003;60991;51.278;22.550;2023-06-04T03:12:48;4.25;0.25;0.00
72854;PMS7003;60991;51.278;22.550;2023-06-04T03:14:18;1.75;1.75;1.75
72854;PMS7003;60991;51.278;22.550;2023-06-04T03:15:48;3.25;3.25;3.00
72854;PMS7003;60991;51.278;22.550;2023-06-04T03:17:18;2.50;2.50;2.25
72854;PMS7003;60991;51.278;22.550;2023-06-04T03:18:49;3.00;3.00;2.75
72854;PMS7003;60991;51.278;22.550;2023-06-04T03:20:19;1.33;1.33;1.00
72854;PMS7003;60991;51.278;22.550;2023-06-04T03:21:49;4.75;3.75;3.00
72854;PMS7003;60991;51.278;22.550;2023-06-04T03:23:20;3.00;3.00;3.00
72854;PMS7003;60991;51.278;22.550;2023-06-04T03:24:50;4.25;2.00;2.00
72854;PMS7003;60991;51.278;22.550;2023-06-04T03:26:21;2.25;2.00;2.00
72854;PMS7003;60991;51.278;22.550;2023-06-04T03:27:51;2.00;2.00;2.00
72854;PMS7003;60991;51.278;22.550;2023-06-04T03:29:21;1.00;1.00;1.00
72854;PMS7003;60991;51.278;22.550;2023-06-04T03:30:51;3.00;3.00;3.00
72854;PMS7003;60991;51.278;22.550;2023-06-04T03:32:21;3.25;3.25;3.00
72854;PMS7003;60991;51.278;22.550;2023-06-04T03:33:52;3.00;3.00;3.00
72854;PMS7003;60991;51.278;22.550;2023-06-04T03:35:22;3.25;3.25;3.25
72854;PMS7003;60991;51.278;22.550;2023-06-04T03:36:55;4.25;4.25;4.00
72854;PMS7003;60991;51.278;22.550;2023-06-04T03:38:25;4.00;3.25;3.00
72854;PMS7003;60991;51.278;22.550;2023-06-04T03:39:56;2.50;2.00;2.00
72854;PMS7003;60991;51.278;22.550;2023-06-04T03:41:26;3.00;3.00;3.00
72854;PMS7003;60991;51.278;22.550;2023-06-04T03:42:56;3.00;2.00;2.00
72854;PMS7003;60991;51.278;22.550;2023-06-04T03:44:26;5.50;2.00;2.00
72854;PMS7003;60991;51.278;22.550;2023-06-04T03:45:56;5.75;3.00;2.50
72854;PMS7003;60991;51.278;22.550;2023-06-04T03:47:27;3.25;2.00;2.00
72854;PMS7003;60991;51.278;22.550;2023-06-04T03:48:57;2.00;2.00;2.00
72854;PMS7003;60991;51.278;22.550;2023-06-04T03:50:27;1.00;1.00;1.00
72854;PMS7003;60991;51.278;22.550;2023-06-04T03:51:57;2.50;2.00;2.00
72854;PMS7003;60991;51.278;22.550;2023-06-04T03:53:27;3.00;2.25;2.00
72854;PMS7003;60991;51.278;22.550;2023-06-04T03:54:58;2.75;2.25;2.25
72854;PMS7003;60991;51.278;22.550;2023-06-04T03:56:28;2.00;2.00;2.00
72854;PMS7003;60991;51.278;22.550;2023-06-04T03:57:59;2.50;2.50;2.00
72854;PMS7003;60991;51.278;22.550;2023-06-04T03:59:29;2.00;2.00;1.25
72854;PMS7003;60991;51.278;22.550;2023-06-04T04:00:59;2.00;2.00;2.00
72854;PMS7003;60991;51.278;22.550;2023-06-04T04:02:29;1.33;1.33;1.33
72854;PMS7003;60991;51.278;22.550;2023-06-04T04:04:00;5.00;3.00;3.00
72854;PMS7003;60991;51.278;22.550;2023-06-04T04:05:30;6.00;3.00;3.00
72854;PMS7003;60991;51.278;22.550;2023-06-04T04:07:01;2.75;2.75;2.50
72854;PMS7003;60991;51.278;22.550;2023-06-04T04:08:31;2.00;2.00;2.00
72854;PMS7003;60991;51.278;22.550;2023-06-04T04:10:01;1.00;1.00;1.00
72854;PMS7003;60991;51.278;22.550;2023-06-04T04:11:31;2.50;2.50;2.25
72854;PMS7003;60991;51.278;22.550;2023-06-04T04:13:02;3.25;3.00;3.00
72854;PMS7003;60991;51.278;22.550;2023-06-04T04:14:32;3.00;2.00;2.00
72854;PMS7003;60991;51.278;22.550;2023-06-04T04:16:02;2.00;2.00;1.00
72854;PMS7003;60991;51.278;22.550;2023-06-04T04:17:33;3.00;3.00;2.00
72854;PMS7003;60991;51.278;22.550;2023-06-04T04:19:03;3.67;2.00;2.00
72854;PMS7003;60991;51.278;22.550;2023-06-04T04:20:33;1.75;1.75;1.25
72854;PMS7003;60991;51.278;22.550;2023-06-04T04:22:04;2.00;2.00;2.00
72854;PMS7003;60991;51.278;22.550;2023-06-04T04:23:34;3.00;3.00;2.00
72854;PMS7003;60991;51.278;22.550;2023-06-04T04:25:04;2.00;2.00;2.00
72854;PMS7003;60991;51.278;22.550;2023-06-04T04:26:34;3.00;2.00;2.00
72854;PMS7003;60991;51.278;22.550;2023-06-04T04:28:05;3.00;1.00;1.00
72854;PMS7003;60991;51.278;22.550;2023-06-04T04:29:35;1.75;1.75;1.75
72854;PMS7003;60991;51.278;22.550;2023-06-04T04:31:05;2.00;2.00;2.00
72854;PMS7003;60991;51.278;22.550;2023-06-04T04:32:35;1.50;1.50;1.50
72854;PMS7003;60991;51.278;22.550;2023-06-04T04:34:07;1.00;1.00;1.00
72854;PMS7003;60991;51.278;22.550;2023-06-04T04:35:37;2.00;2.00;1.25
72854;PMS7003;60991;51.278;22.550;2023-06-04T04:37:07;1.50;1.50;1.25
72854;PMS7003;60991;51.278;22.550;2023-06-04T04:38:37;3.00;2.00;2.00
72854;PMS7003;60991;51.278;22.550;2023-06-04T04:40:08;2.00;1.25;1.00
72854;PMS7003;60991;51.278;22.550;2023-06-04T04:41:38;1.00;1.00;1.00
72854;PMS7003;60991;51.278;22.550;2023-06-04T04:43:08;1.75;1.75;1.50
72854;PMS7003;60991;51.278;22.550;2023-06-04T04:44:38;1.00;1.00;1.00
72854;PMS7003;60991;51.278;22.550;2023-06-04T04:46:09;1.00;0.25;0.00
72854;PMS7003;60991;51.278;22.550;2023-06-04T04:47:39;3.00;2.00;2.00
72854;PMS7003;60991;51.278;22.550;2023-06-04T04:49:09;0.25;0.25;0.25
72854;PMS7003;60991;51.278;22.550;2023-06-04T04:50:39;1.00;1.00;1.00
72854;PMS7003;60991;51.278;22.550;2023-06-04T04:52:10;2.00;2.00;2.00
72854;PMS7003;60991;51.278;22.550;2023-06-04T04:53:40;1.75;1.75;1.75
72854;PMS7003;60991;51.278;22.550;2023-06-04T04:55:10;1.50;1.50;1.00
72854;PMS7003;60991;51.278;22.550;2023-06-04T04:56:40;2.00;2.00;2.00
72854;PMS7003;60991;51.278;22.550;2023-06-04T04:58:10;1.00;1.00;1.00
72854;PMS7003;60991;51.278;22.550;2023-06-04T04:59:41;1.00;1.00;0.25
72854;PMS7003;60991;51.278;22.550;2023-06-04T05:01:11;1.50;1.50;1.00
72854;PMS7003;60991;51.278;22.550;2023-06-04T05:02:41;2.00;2.00;2.00
72854;PMS7003;60991;51.278;22.550;2023-06-04T05:04:11;2.00;2.00;1.25
72854;PMS7003;60991;51.278;22.550;2023-06-04T05:05:42;1.00;1.00;1.00
72854;PMS7003;60991;51.278;22.550;2023-06-04T05:07:12;1.00;1.00;1.00
72854;PMS7003;60991;51.278;22.550;2023-06-04T05:08:42;1.00;1.00;0.75
72854;PMS7003;60991;51.278;22.550;2023-06-04T05:10:13;1.00;1.00;1.00
72854;PMS7003;60991;51.278;22.550;2023-06-04T05:11:43;1.50;1.00;1.00
72854;PMS7003;60991;51.278;22.550;2023-06-04T05:13:13;1.75;1.75;1.25
72854;PMS7003;60991;51.278;22.550;2023-06-04T05:14:43;0.50;0.00;0.00
72854;PMS7003;60991;51.278;22.550;2023-06-04T05:16:15;1.00;1.00;1.00
72854;PMS7003;60991;51.278;22.550;2023-06-04T05:17:45;1.00;1.00;1.00
72854;PMS7003;60991;51.278;22.550;2023-06-04T05:19:16;2.00;2.00;1.00
72854;PMS7003;60991;51.278;22.550;2023-06-04T05:20:46;1.00;1.00;1.00
72854;PMS7003;60991;51.278;22.550;2023-06-04T05:22:17;3.25;1.00;1.00
72854;PMS7003;60991;51.278;22.550;2023-06-04T05:23:47;1.00;1.00;1.00
72854;PMS7003;60991;51.278;22.550;2023-06-04T05:25:17;0.75;0.75;0.75
72854;PMS7003;60991;51.278;22.550;2023-06-04T05:26:47;0.75;0.75;0.75
72854;PMS7003;60991;51.278;22.550;2023-06-04T05:28:18;3.25;2.00;2.00
72854;PMS7003;60991;51.278;22.550;2023-06-04T05:29:48;1.00;0.00;0.00
72854;PMS7003;60991;51.278;22.550;2023-06-04T05:31:18;1.00;1.00;1.00
72854;PMS7003;60991;51.278;22.550;2023-06-04T05:32:48;1.75;1.75;1.75
72854;PMS7003;60991;51.278;22.550;2023-06-04T05:34:19;0.75;0.75;0.75
72854;PMS7003;60991;51.278;22.550;2023-06-04T05:35:49;4.00;2.00;2.00
72854;PMS7003;60991;51.278;22.550;2023-06-04T05:37:19;1.00;1.00;1.00
72854;PMS7003;60991;51.278;22.550;2023-06-04T05:38:50;1.00;1.00;1.00
72854;PMS7003;60991;51.278;22.550;2023-06-04T05:40:20;1.00;1.00;1.00
72854;PMS7003;60991;51.278;22.550;2023-06-04T05:41:50;1.50;1.00;1.00
72854;PMS7003;60991;51.278;22.550;2023-06-04T05:43:21;1.25;1.00;1.00
72854;PMS7003;60991;51.278;22.550;2023-06-04T05:44:51;1.00;1.00;0.75
72854;PMS7003;60991;51.278;22.550;2023-06-04T05:46:21;1.25;1.00;1.00
72854;PMS7003;60991;51.278;22.550;2023-06-04T05:47:53;2.00;1.75;1.50
72854;PMS7003;60991;51.278;22.550;2023-06-04T05:49:23;1.75;1.75;1.75
72854;PMS7003;60991;51.278;22.550;2023-06-04T05:50:54;1.25;1.25;1.25
72854;PMS7003;60991;51.278;22.550;2023-06-04T05:52:24;4.00;2.00;2.00
72854;PMS7003;60991;51.278;22.550;2023-06-04T05:53:54;4.75;1.75;1.50
72854;PMS7003;60991;51.278;22.550;2023-06-04T05:55:24;1.50;1.50;1.50
72854;PMS7003;60991;51.278;22.550;2023-06-04T05:56:54;2.00;2.00;2.00
72854;PMS7003;60991;51.278;22.550;2023-06-04T05:58:25;1.25;1.25;1.00
72854;PMS7003;60991;51.278;22.550;2023-06-04T05:59:55;2.25;1.00;0.50
72854;PMS7003;60991;51.278;22.550;2023-06-04T06:01:25;2.50;1.00;1.00
72854;PMS7003;60991;51.278;22.550;2023-06-04T06:02:55;1.75;1.75;1.75
72854;PMS7003;60991;51.278;22.550;2023-06-04T06:04:26;3.00;1.00;1.00
72854;PMS7003;60991;51.278;22.550;2023-06-04T06:05:56;1.00;1.00;1.00
72854;PMS7003;60991;51.278;22.550;2023-06-04T06:07:26;1.00;1.00;1.00
72854;PMS7003;60991;51.278;22.550;2023-06-04T06:08:57;1.50;1.50;1.00
72854;PMS7003;60991;51.278;22.550;2023-06-04T06:10:27;1.50;1.00;1.00
72854;PMS7003;60991;51.278;22.550;2023-06-04T06:11:57;1.00;1.00;1.00
72854;PMS7003;60991;51.278;22.550;2023-06-04T06:13:27;1.00;0.50;0.25
72854;PMS7003;60991;51.278;22.550;2023-06-04T06:14:57;0.50;0.50;0.50
72854;PMS7003;60991;51.278;22.550;2023-06-04T06:16:28;1.00;1.00;1.00
72854;PMS7003;60991;51.278;22.550;2023-06-04T06:17:58;2.00;0.50;0.00
72854;PMS7003;60991;51.278;22.550;2023-06-04T06:19:28;0.00;0.00;0.00
72854;PMS7003;60991;51.278;22.550;2023-06-04T06:20:58;1.00;1.00;1.00
72854;PMS7003;60991;51.278;22.550;2023-06-04T06:22:29;0.50;0.50;0.50
72854;PMS7003;60991;51.278;22.550;2023-06-04T06:23:59;1.50;1.00;1.00
72854;PMS7003;60991;51.278;22.550;2023-06-04T06:25:29;2.00;0.50;0.50
72854;PMS7003;60991;51.278;22.550;2023-06-04T06:26:59;2.00;2.00;1.75
72854;PMS7003;60991;51.278;22.550;2023-06-04T06:28:29;1.00;1.00;1.00
72854;PMS7003;60991;51.278;22.550;2023-06-04T06:29:59;0.00;0.00;0.00
72854;PMS7003;60991;51.278;22.550;2023-06-04T06:31:30;0.00;0.00;0.00
72854;PMS7003;60991;51.278;22.550;2023-06-04T06:33:00;0.00;0.00;0.00
72854;PMS7003;60991;51.278;22.550;2023-06-04T06:34:30;2.00;0.00;0.00
72854;PMS7003;60991;51.278;22.550;2023-06-04T06:36:00;0.50;0.00;0.00
72854;PMS7003;60991;51.278;22.550;2023-06-04T06:37:31;1.00;1.00;1.00
72854;PMS7003;60991;51.278;22.550;2023-06-04T06:39:01;0.75;0.75;0.50
72854;PMS7003;60991;51.278;22.550;2023-06-04T06:40:31;1.00;1.00;1.00
72854;PMS7003;60991;51.278;22.550;2023-06-04T06:42:01;1.50;0.00;0.00
72854;PMS7003;60991;51.278;22.550;2023-06-04T06:43:32;0.00;0.00;0.00
72854;PMS7003;60991;51.278;22.550;2023-06-04T06:45:02;0.00;0.00;0.00
72854;PMS7003;60991;51.278;22.550;2023-06-04T06:46:32;2.50;0.00;0.00
72854;PMS7003;60991;51.278;22.550;2023-06-04T06:48:03;0.50;0.50;0.00
72854;PMS7003;60991;51.278;22.550;2023-06-04T06:49:34;0.00;0.00;0.00
72854;PMS7003;60991;51.278;22.550;2023-06-04T06:51:04;1.00;0.25;0.25
72854;PMS7003;60991;51.278;22.550;2023-06-04T06:52:34;1.00;1.00;1.00
72854;PMS7003;60991;51.278;22.550;2023-06-04T06:54:04;2.00;1.00;0.50
72854;PMS7003;60991;51.278;22.550;2023-06-04T06:55:35;0.00;0.00;0.00
72854;PMS7003;60991;51.278;22.550;2023-06-04T06:57:05;0.75;0.75;0.75
72854;PMS7003;60991;51.278;22.550;2023-06-04T06:58:35;1.00;1.00;1.00
72854;PMS7003;60991;51.278;22.550;2023-06-04T07:00:05;0.50;0.50;0.50
72854;PMS7003;60991;51.278;22.550;2023-06-04T07:01:36;0.00;0.00;0.00
72854;PMS7003;60991;51.278;22.550;2023-06-04T07:03:06;0.00;0.00;0.00
72854;PMS7003;60991;51.278;22.550;2023-06-04T07:04:36;1.00;1.00;0.25
72854;PMS7003;60991;51.278;22.550;2023-06-04T07:06:07;0.00;0.00;0.00
72854;PMS7003;60991;51.278;22.550;2023-06-04T07:07:37;1.00;0.00;0.00
72854;PMS7003;60991;51.278;22.550;2023-06-04T07:09:07;0.25;0.25;0.25
72854;PMS7003;60991;51.278;22.550;2023-06-04T07:10:37;0.25;0.25;0.25
72854;PMS7003;60991;51.278;22.550;2023-06-04T07:12:08;0.75;0.00;0.00
72854;PMS7003;60991;51.278;22.550;2023-06-04T07:13:38;1.00;1.00;1.00
72854;PMS7003;60991;51.278;22.550;2023-06-04T07:15:09;0.00;0.00;0.00
72854;PMS7003;60991;51.278;22.550;2023-06-04T07:16:39;0.00;0.00;0.00
72854;PMS7003;60991;51.278;22.550;2023-06-04T07:18:09;0.75;0.75;0.75
72854;PMS7003;60991;51.278;22.550;2023-06-04T07:19:39;1.00;1.00;1.00
72854;PMS7003;60991;51.278;22.550;2023-06-04T07:21:10;0.50;0.50;0.00
72854;PMS7003;60991;51.278;22.550;2023-06-04T07:22:40;0.75;0.75;0.25
72854;PMS7003;60991;51.278;22.550;2023-06-04T07:24:10;0.00;0.00;0.00
72854;PMS7003;60991;51.278;22.550;2023-06-04T07:25:40;0.25;0.25;0.00
72854;PMS7003;60991;51.278;22.550;2023-06-04T07:27:11;0.00;0.00;0.00
72854;PMS7003;60991;51.278;22.550;2023-06-04T07:28:42;2.00;1.00;0.00
72854;PMS7003;60991;51.278;22.550;2023-06-04T07:30:12;0.00;0.00;0.00
72854;PMS7003;60991;51.278;22.550;2023-06-04T07:31:43;0.75;0.00;0.00
72854;PMS7003;60991;51.278;22.550;2023-06-04T07:33:13;0.00;0.00;0.00
72854;PMS7003;60991;51.278;22.550;2023-06-04T07:34:43;0.00;0.00;0.00
72854;PMS7003;60991;51.278;22.550;2023-06-04T07:36:14;2.00;1.00;0.00
72854;PMS7003;60991;51.278;22.550;2023-06-04T07:37:44;0.75;0.75;0.25
72854;PMS7003;60991;51.278;22.550;2023-06-04T07:39:14;1.00;0.00;0.00
72854;PMS7003;60991;51.278;22.550;2023-06-04T07:40:45;0.25;0.25;0.25
72854;PMS7003;60991;51.278;22.550;2023-06-04T07:42:16;0.00;0.00;0.00
72854;PMS7003;60991;51.278;22.550;2023-06-04T07:43:46;0.00;0.00;0.00
72854;PMS7003;60991;51.278;22.550;2023-06-04T07:45:16;0.00;0.00;0.00
72854;PMS7003;60991;51.278;22.550;2023-06-04T07:46:46;0.00;0.00;0.00
72854;PMS7003;60991;51.278;22.550;2023-06-04T07:48:17;0.00;0.00;0.00
72854;PMS7003;60991;51.278;22.550;2023-06-04T07:49:47;1.00;1.00;0.50
72854;PMS7003;60991;51.278;22.550;2023-06-04T07:51:17;1.00;0.00;0.00
72854;PMS7003;60991;51.278;22.550;2023-06-04T07:52:47;0.50;0.50;0.50
72854;PMS7003;60991;51.278;22.550;2023-06-04T07:54:18;1.00;1.00;0.00
72854;PMS7003;60991;51.278;22.550;2023-06-04T07:55:48;0.00;0.00;0.00
72854;PMS7003;60991;51.278;22.550;2023-06-04T07:57:18;1.75;1.00;1.00
72854;PMS7003;60991;51.278;22.550;2023-06-04T07:58:48;1.00;1.00;1.00
72854;PMS7003;60991;51.278;22.550;2023-06-04T08:00:18;1.00;0.25;0.25
72854;PMS7003;60991;51.278;22.550;2023-06-04T08:01:51;0.00;0.00;0.00
72854;PMS7003;60991;51.278;22.550;2023-06-04T08:03:22;2.00;0.75;0.75
72854;PMS7003;60991;51.278;22.550;2023-06-04T08:04:52;1.00;0.25;0.00
72854;PMS7003;60991;51.278;22.550;2023-06-04T08:06:22;0.00;0.00;0.00
72854;PMS7003;60991;51.278;22.550;2023-06-04T08:07:52;0.25;0.00;0.00
72854;PMS7003;60991;51.278;22.550;2023-06-04T08:09:23;1.00;1.00;0.75
72854;PMS7003;60991;51.278;22.550;2023-06-04T08:10:53;0.75;0.75;0.75
72854;PMS7003;60991;51.278;22.550;2023-06-04T08:12:23;1.00;0.00;0.00
72854;PMS7003;60991;51.278;22.550;2023-06-04T08:13:53;0.00;0.00;0.00
72854;PMS7003;60991;51.278;22.550;2023-06-04T08:15:23;0.00;0.00;0.00
72854;PMS7003;60991;51.278;22.550;2023-06-04T08:16:54;2.00;0.75;0.75
72854;PMS7003;60991;51.278;22.550;2023-06-04T08:18:24;0.00;0.00;0.00
72854;PMS7003;60991;51.278;22.550;2023-06-04T08:19:55;0.25;0.00;0.00
72854;PMS7003;60991;51.278;22.550;2023-06-04T08:21:26;0.25;0.00;0.00
72854;PMS7003;60991;51.278;22.550;2023-06-04T08:22:57;0.00;0.00;0.00
72854;PMS7003;60991;51.278;22.550;2023-06-04T08:24:27;1.00;1.00;1.00
72854;PMS7003;60991;51.278;22.550;2023-06-04T08:25:58;1.00;1.00;1.00
72854;PMS7003;60991;51.278;22.550;2023-06-04T08:27:28;0.00;0.00;0.00
72854;PMS7003;60991;51.278;22.550;2023-06-04T08:28:58;1.50;0.00;0.00
72854;PMS7003;60991;51.278;22.550;2023-06-04T08:30:28;0.00;0.00;0.00
72854;PMS7003;60991;51.278;22.550;2023-06-04T08:31:58;1.00;1.00;1.00
72854;PMS7003;60991;51.278;22.550;2023-06-04T08:33:28;0.00;0.00;0.00
72854;PMS7003;60991;51.278;22.550;2023-06-04T08:34:59;0.00;0.00;0.00
72854;PMS7003;60991;51.278;22.550;2023-06-04T08:36:29;0.00;0.00;0.00
72854;PMS7003;60991;51.278;22.550;2023-06-04T08:37:59;1.00;0.50;0.50
72854;PMS7003;60991;51.278;22.550;2023-06-04T08:39:29;0.00;0.00;0.00
72854;PMS7003;60991;51.278;22.550;2023-06-04T08:41:02;0.00;0.00;0.00
72854;PMS7003;60991;51.278;22.550;2023-06-04T08:42:43;0.00;0.00;0.00
72854;PMS7003;60991;51.278;22.550;2023-06-04T08:44:14;0.75;0.00;0.00